Time;durP1;ratioP1;P1;durP2;ratioP2;P2;SDS_P1;SDS_P2;PMS_P1;PMS_P2;Temp;Humidity;BMP_temperature;BMP_pressure;BME280_temperature;BME280_humidity;BME280_pressure;Samples;Min_cycle;Max_cycle;Signal;HPM_P1;HPM_P2
2022/05/26 00:00:10;;;;;;;;;;;18.30;88.20;;;16.26;77.97;100685.91;6153310;23;19920;-78
2022/05/26 00:02:37;;;;;;;;;;;18.30;88.00;;;16.26;78.10;100682.31;6153254;23;19920;-78
2022/05/26 00:05:05;;;;;;;;;;;18.30;88.10;;;16.26;78.30;100679.56;6153381;23;20267;-78
2022/05/26 00:07:32;;;;;;;;;;;18.30;88.00;;;16.25;78.46;100675.97;6152352;23;20003;-78
2022/05/26 00:09:59;;;;;;;;;;;18.30;88.20;;;16.24;78.77;100677.06;6152888;23;19956;-78
2022/05/26 00:12:26;;;;;;;;;;;18.30;88.40;;;16.25;79.21;100683.38;6152719;23;19917;-78
2022/05/26 00:14:54;;;;;;;;;;;18.30;88.90;;;16.21;79.77;100674.72;6126741;23;19947;-78
2022/05/26 00:17:22;;;;;;;;;;;18.30;89.00;;;16.18;80.54;100675.16;6153063;23;19956;-78
2022/05/26 00:19:50;;;;;;;;;;;18.30;89.60;;;16.15;80.48;100681.09;6152403;23;20412;-78
2022/05/26 00:22:17;;;;;;;;;;;18.20;89.70;;;16.17;80.09;100681.72;6153011;23;19956;-78
2022/05/26 00:24:44;;;;;;;;;;;18.20;89.60;;;16.15;80.45;100681.09;6153104;23;20332;-78
2022/05/26 00:27:11;;;;;;;;;;;18.20;89.50;;;16.12;80.96;100685.09;6152816;23;20003;-78
2022/05/26 00:29:38;;;;;;;;;;;18.20;90.10;;;16.12;81.43;100678.78;6152322;23;19916;-78
2022/05/26 00:32:08;;;;;;;;;;;18.20;90.30;;;16.08;81.26;100675.63;6152736;23;19927;-78
2022/05/26 00:34:35;;;;;;;;;;;18.10;90.40;;;16.07;81.96;100681.31;6152840;23;19920;-78
2022/05/26 00:37:06;;;;;;;;;;;18.10;90.90;;;16.08;81.75;100683.03;6152999;23;19979;-78
2022/05/26 00:39:33;;;;;;;;;;;18.10;90.60;;;16.10;81.35;100683.66;6125760;23;19920;-78
2022/05/26 00:42:04;;;;;;;;;;;18.10;90.10;;;16.10;82.12;100683.66;6152604;23;19916;-78
2022/05/26 00:44:32;;;;;;;;;;;18.10;90.80;;;16.08;81.97;100674.78;6152832;23;19920;-78
2022/05/26 00:47:03;;;;;;;;;;;18.10;91.00;;;16.07;81.56;100684.94;6152900;23;19921;-78
2022/05/26 00:49:40;;;;;;;;;;;18.10;90.50;;;16.06;82.48;100676.91;6151645;23;20402;-78
2022/05/26 00:52:07;;;;;;;;;;;18.10;91.10;;;16.06;82.32;100685.16;6152950;23;19916;-78
2022/05/26 00:54:34;;;;;;;;;;;18.10;91.00;;;16.05;82.48;100681.56;6152244;23;20081;-78
2022/05/26 00:57:04;;;;;;;;;;;18.10;91.00;;;16.02;82.42;100680.06;6152528;23;19991;-78
2022/05/26 00:59:40;;;;;;;;;;;18.10;91.20;;;16.00;82.71;100678.63;6151746;23;20350;-78
2022/05/26 01:02:08;;;;;;;;;;;18.10;91.50;;;16.00;83.06;100689.59;6152937;23;20403;-78
2022/05/26 01:04:41;;;;;;;;;;;18.00;91.50;;;15.96;83.89;100680.94;6126167;23;19916;-78
2022/05/26 01:07:12;;;;;;;;;;;18.00;92.10;;;15.96;84.27;100677.38;6152315;23;19924;-78
2022/05/26 01:09:40;;;;;;;;;;;18.00;92.30;;;15.93;84.54;100689.59;6151509;23;19946;-78
2022/05/26 01:12:07;;;;;;;;;;;17.90;92.60;;;15.90;84.35;100684.56;6152579;23;19920;-78
2022/05/26 01:14:38;;;;;;;;;;;17.90;92.50;;;15.89;84.80;100677.38;6151992;23;20007;-78
2022/05/26 01:17:13;;;;;;;;;;;17.90;92.80;;;15.93;84.13;100677.78;6152128;23;19920;-78
2022/05/26 01:20:12;;;;;;;;;;;17.90;92.50;;;15.94;84.32;100676.75;6152040;23;20007;-78
2022/05/26 01:23:01;;;;;;;;;;;18.00;92.70;;;15.93;85.00;100686.84;6152554;23;19975;-78
2022/05/26 01:25:45;;;;;;;;;;;18.00;92.80;;;15.92;84.95;100687.94;6148934;23;19927;-78
2022/05/26 01:28:20;;;;;;;;;;;17.90;92.50;;;15.94;84.79;100684.97;6152084;23;19952;-78
2022/05/26 01:30:51;;;;;;;;;;;18.00;92.40;;;15.94;84.90;100680.31;6152367;23;19920;-78
2022/05/26 01:33:37;;;;;;;;;;;18.00;92.30;;;15.93;85.61;100689.59;6152924;23;20340;-79
2022/05/26 01:36:17;;;;;;;;;;;18.00;93.10;;;15.93;85.77;100678.63;6149848;23;19951;-79
2022/05/26 01:38:55;;;;;;;;;;;17.90;93.10;;;15.93;85.60;100678.63;6152095;23;20256;-78
2022/05/26 01:41:35;;;;;;;;;;;18.00;93.00;;;15.92;86.59;100687.94;6152547;23;20347;-78
2022/05/26 01:44:12;;;;;;;;;;;18.00;93.30;;;15.91;87.13;100685.41;6152935;23;19921;-78
2022/05/26 01:46:41;;;;;;;;;;;18.00;93.80;;;15.92;86.80;100681.59;6152034;23;19921;-78
2022/05/26 01:49:14;;;;;;;;;;;18.00;93.70;;;15.88;87.07;100683.06;6151799;23;20011;-78
2022/05/26 01:51:44;;;;;;;;;;;17.90;94.10;;;15.88;86.60;100686.69;6152482;23;20362;-78
2022/05/26 01:54:15;;;;;;;;;;;17.90;93.90;;;15.86;87.76;100697.03;6152203;23;19964;-79
2022/05/26 01:56:49;;;;;;;;;;;17.90;94.60;;;15.87;86.53;100701.44;6152049;23;19955;-78
2022/05/26 01:59:19;;;;;;;;;;;17.90;93.90;;;15.86;87.62;100698.91;6151777;23;20233;-78
2022/05/26 02:01:50;;;;;;;;;;;17.90;94.20;;;15.87;87.27;100701.44;6152285;23;19967;-78
2022/05/26 02:04:20;;;;;;;;;;;17.90;94.20;;;15.87;87.32;100697.88;6151943;23;20304;-78
2022/05/26 02:06:51;;;;;;;;;;;17.90;94.30;;;15.87;87.95;100700.63;6152204;23;19921;-78
2022/05/26 02:09:22;;;;;;;;;;;17.90;94.50;;;15.87;87.44;100701.44;6151140;23;19952;-78
2022/05/26 02:11:55;;;;;;;;;;;17.90;94.10;;;15.88;87.73;100694.91;6152229;23;20358;-78
2022/05/26 02:14:29;;;;;;;;;;;17.90;94.20;;;15.89;87.74;100702.06;6151414;23;20018;-78
2022/05/26 02:16:59;;;;;;;;;;;17.90;94.30;;;15.88;88.38;100708.63;6151720;23;19921;-78
2022/05/26 02:19:31;;;;;;;;;;;17.90;94.60;;;15.88;87.85;100703.16;6150951;23;19916;-79
2022/05/26 02:22:02;;;;;;;;;;;17.90;94.10;;;15.89;88.08;100701.25;6152578;23;19948;-78
2022/05/26 02:24:33;;;;;;;;;;;18.00;94.40;;;15.88;87.80;100703.16;6151686;23;19943;-78
2022/05/26 02:27:00;;;;;;;;;;;18.00;94.10;;;15.87;88.66;100701.44;6151974;23;19924;-78
2022/05/26 02:32:15;;;;;;;;;;;17.90;94.90;;;15.87;89.11;100717.09;6124571;23;19927;-78
2022/05/26 02:34:45;;;;;;;;;;;17.90;94.90;;;15.86;88.54;100713.50;6152116;23;19995;-78
2022/05/26 02:37:13;;;;;;;;;;;17.90;94.50;;;15.86;89.16;100713.50;6125743;23;19924;-78
2022/05/26 02:39:40;;;;;;;;;;;17.90;95.10;;;15.87;89.34;100717.09;6151307;23;19921;-78
2022/05/26 02:42:08;;;;;;;;;;;17.90;95.10;;;15.86;89.43;100713.50;6151651;23;20297;-78
2022/05/26 02:44:35;;;;;;;;;;;17.90;94.90;;;15.85;89.68;100720.03;6151330;23;19927;-79
2022/05/26 02:47:14;;;;;;;;;;;18.00;94.90;;;15.83;89.95;100716.66;6151140;23;19921;-78
2022/05/26 02:49:58;;;;;;;;;;;17.90;95.40;;;15.85;90.15;100724.69;6151238;23;19920;-78
2022/05/26 02:52:29;;;;;;;;;;;17.90;95.80;;;15.82;90.68;100724.06;6152064;23;19940;-78
2022/05/26 02:55:05;;;;;;;;;;;17.90;96.10;;;15.78;91.34;100724.69;6151797;23;19995;-78
2022/05/26 02:57:38;;;;;;;;;;;17.80;96.50;;;15.80;91.02;100730.81;6151624;23;19948;-78
2022/05/26 03:00:08;;;;;;;;;;;17.80;96.10;;;15.80;91.17;100728.94;6151104;23;19916;-78
2022/05/26 03:02:40;;;;;;;;;;;17.80;96.20;;;15.79;91.80;100731.88;6152177;23;20302;-78
2022/05/26 03:05:13;;;;;;;;;;;17.80;96.70;;;15.76;92.05;100727.66;6151413;23;20395;-78
2022/05/26 03:07:45;;;;;;;;;;;17.80;97.20;;;15.77;91.64;100737.56;6150959;23;20542;-78
2022/05/26 03:10:13;;;;;;;;;;;17.80;96.80;;;15.76;92.44;100732.28;6151325;23;19920;-78
2022/05/26 03:12:40;;;;;;;;;;;17.80;97.20;;;15.74;92.37;100731.66;6151573;23;19924;-78
2022/05/26 03:15:08;;;;;;;;;;;17.80;97.60;;;15.75;92.92;100736.09;6151433;23;20415;-79
2022/05/26 03:17:36;;;;;;;;;;;17.80;97.30;;;15.74;92.98;100723.44;6151175;23;20232;-78
2022/05/26 03:20:03;;;;;;;;;;;17.80;97.50;;;15.73;93.23;100722.59;6151006;23;19995;-79
2022/05/26 03:22:32;;;;;;;;;;;17.80;97.80;;;15.75;92.90;100730.63;6151071;23;20299;-78
2022/05/26 03:24:59;;;;;;;;;;;17.80;97.40;;;15.75;92.87;100736.09;6151693;23;19927;-78
2022/05/26 03:27:26;;;;;;;;;;;17.80;97.30;;;15.76;92.76;100729.56;6149627;23;20552;-79
2022/05/26 03:29:54;;;;;;;;;;;17.80;97.40;;;15.75;92.85;100730.63;6150799;23;19926;-79
2022/05/26 03:32:23;;;;;;;;;;;17.80;97.10;;;15.75;94.23;100741.59;6151247;23;20077;-79
2022/05/26 03:43:06;;;;;;;;;;;17.70;99.60;;;15.62;97.31;100737.75;6151600;23;20647;-78
2022/05/26 03:45:34;;;;;;;;;;;17.70;99.90;;;15.62;98.04;100748.75;6150841;23;19920;-78
2022/05/26 03:48:01;;;;;;;;;;;17.60;99.90;;;15.57;99.75;100751.28;6150377;23;20410;-78
2022/05/26 03:50:29;;;;;;;;;;;17.50;99.90;;;15.59;99.82;100753.81;6150847;23;19952;-78
2022/05/26 03:52:57;;;;;;;;;;;17.50;99.90;;;15.56;100.00;100759.72;6151628;23;19917;-78
2022/05/26 03:55:25;;;;;;;;;;;17.50;99.90;;;15.50;100.00;100755.06;6150268;23;20011;-79
2022/05/26 03:57:53;;;;;;;;;;;17.40;99.90;;;15.43;100.00;100757.81;6149991;23;19923;-79
2022/05/26 04:00:23;;;;;;;;;;;17.30;99.90;;;15.40;100.00;100758.22;6151443;23;19927;-78
2022/05/26 04:02:50;;;;;;;;;;;17.30;99.90;;;15.38;100.00;100763.09;6150810;23;19951;-78
2022/05/26 04:05:17;;;;;;;;;;;17.30;99.90;;;15.38;100.00;100769.44;6150711;23;20007;-79
2022/05/26 04:07:44;;;;;;;;;;;17.30;99.90;;;15.41;100.00;100773.66;6150284;23;19920;-79
2022/05/26 04:10:13;;;;;;;;;;;17.40;99.90;;;15.39;100.00;100768.38;6150716;23;19963;-78
2022/05/26 04:12:41;;;;;;;;;;;17.40;99.90;;;15.37;100.00;100770.47;6151320;23;19927;-78
2022/05/26 04:15:09;;;;;;;;;;;17.40;99.90;;;15.37;100.00;100780.63;6151265;23;19920;-79
2022/05/26 04:17:37;;;;;;;;;;;17.30;99.90;;;15.35;100.00;100785.47;6150673;23;19916;-79
2022/05/26 04:20:06;;;;;;;;;;;17.30;99.90;;;15.26;100.00;100793.03;6151199;23;19920;-79
2022/05/26 04:22:33;;;;;;;;;;;17.20;99.90;;;15.22;100.00;100789.88;6151016;23;19948;-79
2022/05/26 04:25:00;;;;;;;;;;;17.10;99.90;;;15.21;100.00;100790.94;6151052;23;19995;-79
2022/05/26 04:27:30;;;;;;;;;;;17.20;99.90;;;15.19;100.00;100794.91;6151015;23;20003;-79
2022/05/26 04:29:57;;;;;;;;;;;17.20;99.90;;;15.19;100.00;100795.78;6150153;23;19921;-79
2022/05/26 04:32:24;;;;;;;;;;;17.20;99.90;;;15.20;100.00;100800.19;6150693;23;19920;-79
2022/05/26 04:34:53;;;;;;;;;;;17.20;99.90;;;15.18;100.00;100798.72;6150010;23;19921;-79
2022/05/26 04:37:21;;;;;;;;;;;17.20;99.90;;;15.14;100.00;100805.69;6151056;23;19975;-78
2022/05/26 04:42:53;;;;;;;;;;;17.10;99.90;;;15.09;100.00;100803.56;6121324;23;20454;-78
2022/05/26 04:45:20;;;;;;;;;;;17.10;99.90;;;15.05;100.00;100813.25;6152120;23;19921;-78
2022/05/26 04:47:47;;;;;;;;;;;17.00;99.90;;;15.05;100.00;100802.28;6152242;23;19920;-79
2022/05/26 04:50:17;;;;;;;;;;;17.00;99.90;;;15.04;100.00;100817.88;6152639;23;19921;-78
2022/05/26 04:52:44;;;;;;;;;;;17.00;99.90;;;15.01;100.00;100814.72;6126975;23;20027;-79
2022/05/26 04:55:12;;;;;;;;;;;17.00;99.90;;;14.97;100.00;100814.28;6126112;23;19932;-79
2022/05/26 04:57:39;;;;;;;;;;;16.90;99.90;;;14.96;100.00;100819.97;6152005;23;19921;-79
2022/05/26 05:00:12;;;;;;;;;;;16.90;99.90;;;14.95;100.00;100816.38;6152662;23;19943;-78
2022/05/26 05:02:49;;;;;;;;;;;16.90;99.90;;;14.95;100.00;100818.28;6152793;23;19943;-78
2022/05/26 05:05:17;;;;;;;;;;;16.90;99.90;;;14.95;100.00;100818.28;6152110;23;19921;-79
2022/05/26 05:07:44;;;;;;;;;;;16.90;99.90;;;14.93;100.00;100825.88;6152133;23;20323;-78
2022/05/26 05:10:11;;;;;;;;;;;16.90;99.90;;;14.92;100.00;100829.66;6152010;23;19927;-78
2022/05/26 05:12:41;;;;;;;;;;;16.90;99.90;;;14.92;100.00;100818.69;6152820;23;19921;-78
2022/05/26 05:15:15;;;;;;;;;;;16.90;99.90;;;14.90;100.00;100826.28;6151999;23;19925;-78
2022/05/26 05:17:44;;;;;;;;;;;16.90;99.90;;;14.90;100.00;100826.28;6125547;23;20004;-79
2022/05/26 05:20:12;;;;;;;;;;;16.90;99.90;;;14.92;100.00;100829.66;6151665;23;19933;-78
2022/05/26 05:22:41;;;;;;;;;;;17.00;99.90;;;14.94;100.00;100835.75;6151701;23;19926;-78
2022/05/26 05:25:14;;;;;;;;;;;17.00;99.90;;;14.92;100.00;100840.63;6152142;23;19959;-78
2022/05/26 05:27:46;;;;;;;;;;;17.00;99.90;;;14.93;100.00;100836.84;6152326;23;20291;-79
2022/05/26 05:30:19;;;;;;;;;;;17.00;99.90;;;14.94;100.00;100838.50;6152633;23;20011;-79
2022/05/26 05:32:50;;;;;;;;;;;17.00;99.90;;;14.95;100.00;100848.44;6149203;23;19999;-79
2022/05/26 05:35:22;;;;;;;;;;;17.00;99.90;;;14.95;100.00;100848.44;6150409;23;19927;-79
2022/05/26 05:37:49;;;;;;;;;;;17.00;99.90;;;14.98;100.00;100848.88;6150697;23;20328;-79
2022/05/26 05:40:16;;;;;;;;;;;17.10;99.90;;;14.98;100.00;100853.47;6150970;23;20007;-79
2022/05/26 05:42:43;;;;;;;;;;;17.10;99.90;;;14.98;100.00;100858.97;6151242;23;19936;-78
2022/05/26 05:45:11;;;;;;;;;;;17.10;99.90;;;15.01;100.00;100862.16;6151404;23;19999;-78
2022/05/26 05:47:42;;;;;;;;;;;17.10;99.90;;;15.01;100.00;100862.16;6151094;23;19952;-78
2022/05/26 05:50:10;;;;;;;;;;;17.10;99.90;;;15.02;100.00;100868.47;6151650;23;19917;-78
2022/05/26 05:52:37;;;;;;;;;;;17.10;99.90;;;15.01;100.00;100869.53;6149872;23;20543;-78
2022/05/26 05:55:10;;;;;;;;;;;17.10;99.90;;;15.02;100.00;100873.94;6149793;23;19920;-78
2022/05/26 05:57:37;;;;;;;;;;;17.10;99.90;;;15.05;100.00;100873.56;6150516;23;19927;-81
2022/05/26 06:00:07;;;;;;;;;;;17.20;99.90;;;15.09;100.00;100879.47;6150674;23;19932;-83
2022/05/26 06:02:34;;;;;;;;;;;17.20;99.90;;;15.10;100.00;100868.31;6151204;23;19928;-80
2022/05/26 06:05:02;;;;;;;;;;;17.20;99.90;;;15.13;100.00;100875.25;6150026;23;19922;-77
2022/05/26 06:07:30;;;;;;;;;;;17.30;99.90;;;15.10;100.00;100879.28;6150981;23;19920;-82
2022/05/26 06:09:57;;;;;;;;;;;17.20;99.90;;;15.12;100.00;100890.88;6150026;23;20002;-82
2022/05/26 06:12:24;;;;;;;;;;;17.20;99.90;;;15.14;100.00;100887.94;6151304;23;19942;-81
2022/05/26 06:14:51;;;;;;;;;;;17.20;99.90;;;15.14;100.00;100888.78;6125078;23;19916;-81
2022/05/26 06:17:19;;;;;;;;;;;17.20;99.90;;;15.15;100.00;100890.44;6150776;23;20542;-82
2022/05/26 06:19:46;;;;;;;;;;;17.20;99.90;;;15.17;100.00;100891.09;6150151;23;19924;-84
2022/05/26 06:22:17;;;;;;;;;;;17.20;99.90;;;15.18;100.00;100895.53;6124969;23;20007;-83
2022/05/26 06:24:47;;;;;;;;;;;17.30;99.90;;;15.18;100.00;100894.69;6123505;23;19948;-83
2022/05/26 06:30:05;;;;;;;;;;;17.30;99.90;;;15.22;100.00;100906.94;6150106;23;19925;-83
2022/05/26 06:38:11;;;;;;;;;;;17.40;99.90;;;15.28;100.00;100905.25;6150939;23;19924;-82
2022/05/26 06:40:38;;;;;;;;;;;17.40;99.90;;;15.29;100.00;100905.06;6151731;23;20362;-82
2022/05/26 06:43:06;;;;;;;;;;;17.50;99.90;;;15.28;100.00;100911.59;6152168;23;19971;-82
2022/05/26 06:45:33;;;;;;;;;;;17.40;99.90;;;15.30;100.00;100914.13;6152095;23;19943;-82
2022/05/26 06:48:00;;;;;;;;;;;17.50;99.90;;;15.31;100.00;100908.44;6151142;23;20355;-82
2022/05/26 06:50:27;;;;;;;;;;;17.40;99.90;;;15.33;100.00;100920.06;6125497;23;19920;-78
2022/05/26 06:52:54;;;;;;;;;;;17.50;99.90;;;15.36;100.00;100924.25;6151862;23;19920;-78
2022/05/26 06:55:22;;;;;;;;;;;17.50;99.90;;;15.37;100.00;100923.22;6150957;23;20715;-78
2022/05/26 06:57:49;;;;;;;;;;;17.50;99.90;;;15.39;100.00;100923.88;6150825;23;19959;-78
2022/05/26 07:00:18;;;;;;;;;;;17.60;99.90;;;15.42;100.00;100928.91;6152135;23;19923;-78
2022/05/26 07:02:45;;;;;;;;;;;17.60;99.90;;;15.46;100.00;100938.44;6152083;23;19959;-78
2022/05/26 07:05:13;;;;;;;;;;;17.70;99.90;;;15.49;100.00;100940.75;6125120;23;19943;-78
2022/05/26 07:07:42;;;;;;;;;;;17.80;99.90;;;15.51;100.00;100933.16;6150907;23;19963;-78
2022/05/26 07:10:12;;;;;;;;;;;17.80;99.90;;;15.54;100.00;100942.91;6151441;23;19988;-78
2022/05/26 07:12:41;;;;;;;;;;;17.90;99.90;;;15.57;100.00;100946.09;6151779;23;19923;-78
2022/05/26 07:15:09;;;;;;;;;;;17.90;99.90;;;15.62;100.00;100945.44;6150663;23;19921;-78
2022/05/26 07:17:38;;;;;;;;;;;18.00;99.90;;;15.63;100.00;100950.72;6150886;23;19956;-78
2022/05/26 07:20:09;;;;;;;;;;;18.10;99.90;;;15.68;100.00;100949.25;6150948;23;19923;-78
2022/05/26 07:22:36;;;;;;;;;;;18.10;99.90;;;15.75;100.00;100955.66;6150562;23;19921;-78
2022/05/26 07:25:04;;;;;;;;;;;18.30;99.90;;;15.79;100.00;100957.75;6151241;23;20340;-78
2022/05/26 07:27:32;;;;;;;;;;;18.40;99.90;;;15.85;100.00;100953.31;6124931;23;19921;-78
2022/05/26 07:30:01;;;;;;;;;;;18.50;99.90;;;15.92;100.00;100956.94;6124158;23;19920;-78
2022/05/26 07:32:30;;;;;;;;;;;18.70;99.90;;;15.99;100.00;100954.19;6151126;23;20003;-78
2022/05/26 07:34:59;;;;;;;;;;;18.80;99.90;;;16.06;100.00;100951.47;6149709;23;19920;-81
2022/05/26 07:42:56;;;;;;;;;;;19.30;99.90;;;16.27;100.00;100948.50;6125082;23;20351;-79
2022/05/26 07:45:24;;;;;;;;;;;19.40;99.90;;;16.34;100.00;100957.59;6148578;23;20307;-78
2022/05/26 07:47:52;;;;;;;;;;;19.40;99.90;;;16.39;100.00;100955.06;6150234;23;19964;-78
2022/05/26 07:50:20;;;;;;;;;;;19.40;99.90;;;16.47;100.00;100959.50;6150227;23;19920;-79
2022/05/26 07:52:48;;;;;;;;;;;19.50;99.90;;;16.53;100.00;100963.28;6150277;23;19920;-78
2022/05/26 07:55:15;;;;;;;;;;;19.50;99.90;;;16.57;100.00;100959.88;6149053;23;20355;-77
2022/05/26 07:57:43;;;;;;;;;;;19.50;99.90;;;16.62;100.00;100973.00;6149956;23;20011;-80
2022/05/26 08:00:11;;;;;;;;;;;19.50;99.90;;;16.67;100.00;100975.94;6147898;23;20183;-80
2022/05/26 08:02:40;;;;;;;;;;;19.60;99.90;;;16.70;100.00;100978.28;6151555;23;19928;-81
2022/05/26 08:05:09;;;;;;;;;;;19.50;99.90;;;16.73;100.00;100977.81;6121167;23;19944;-82
2022/05/26 08:07:41;;;;;;;;;;;19.50;99.90;;;16.79;100.00;100982.50;6122722;23;19951;-82
2022/05/26 08:10:09;;;;;;;;;;;19.60;99.90;;;16.85;100.00;100974.44;6121973;23;20347;-82
2022/05/26 08:12:37;;;;;;;;;;;19.90;99.90;;;16.93;100.00;100977.00;6123739;23;19920;-84
2022/05/26 08:15:05;;;;;;;;;;;20.00;99.90;;;16.99;100.00;100973.38;6148605;23;19947;-85
2022/05/26 08:17:32;;;;;;;;;;;20.20;99.90;;;17.05;100.00;100985.41;6150331;23;19931;-84
2022/05/26 08:20:00;;;;;;;;;;;20.30;99.90;;;17.12;100.00;100989.84;6149532;23;20315;-85
2022/05/26 08:22:27;;;;;;;;;;;20.40;99.90;;;17.20;100.00;100995.09;6152567;23;20071;-84
2022/05/26 08:24:56;;;;;;;;;;;20.40;99.90;;;17.25;100.00;100991.69;6152153;23;19940;-84
2022/05/26 08:27:24;;;;;;;;;;;20.50;99.90;;;17.28;100.00;100993.16;6152066;23;19925;-84
2022/05/26 08:29:54;;;;;;;;;;;20.40;99.90;;;17.31;100.00;100995.50;6150408;23;20340;-84
2022/05/26 08:32:22;;;;;;;;;;;20.30;99.90;;;17.33;100.00;100998.88;6151318;23;19921;-85
2022/05/26 08:34:50;;;;;;;;;;;20.20;99.90;;;17.37;100.00;101013.88;6151804;23;20003;-85
2022/05/26 08:37:21;;;;;;;;;;;20.30;99.90;;;17.37;100.00;101011.13;6151370;23;19920;-84
2022/05/26 08:39:49;;;;;;;;;;;20.20;99.90;;;17.38;100.00;101015.53;6150286;23;20298;-84
2022/05/26 08:42:20;;;;;;;;;;;20.10;99.90;;;17.38;100.00;101010.03;6151369;23;19921;-84
2022/05/26 08:44:47;;;;;;;;;;;20.10;99.90;;;17.42;100.00;101007.69;6151130;23;20414;-84
2022/05/26 08:47:16;;;;;;;;;;;20.20;99.90;;;17.46;100.00;101011.72;6152580;23;20008;-84
2022/05/26 08:49:48;;;;;;;;;;;20.30;99.90;;;17.49;100.00;101016.78;6149870;23;19924;-85
2022/05/26 08:52:18;;;;;;;;;;;20.30;99.90;;;17.51;100.00;101021.00;6152848;23;19958;-85
2022/05/26 08:54:51;;;;;;;;;;;20.30;99.90;;;17.53;100.00;101016.13;6151945;23;19927;-84
2022/05/26 08:57:22;;;;;;;;;;;20.30;99.90;;;17.55;100.00;101027.78;6151218;23;19928;-83
2022/05/26 08:59:49;;;;;;;;;;;20.30;99.90;;;17.58;100.00;101024.56;6151041;23;19920;-82
2022/05/26 09:02:23;;;;;;;;;;;20.30;99.90;;;17.63;100.00;101025.81;6152304;23;19920;-83
2022/05/26 09:04:50;;;;;;;;;;;20.50;99.90;;;17.68;100.00;101015.00;6153195;23;19931;-82
2022/05/26 09:12:59;;;;;;;;;;;20.70;99.90;;;17.83;100.00;101015.56;6152626;23;20511;-82
2022/05/26 09:15:27;;;;;;;;;;;20.90;99.90;;;17.87;100.00;101018.75;6153078;23;19927;-82
2022/05/26 09:17:55;;;;;;;;;;;20.90;99.90;;;17.91;100.00;101020.81;6125595;23;20341;-82
2022/05/26 09:20:31;;;;;;;;;;;20.90;99.90;;;17.96;100.00;101033.94;6153148;23;19963;-82
2022/05/26 09:23:13;;;;;;;;;;;20.90;99.90;;;17.99;100.00;101030.72;6152653;23;19999;-82
2022/05/26 09:25:46;;;;;;;;;;;20.90;99.90;;;18.00;99.06;101040.69;6152956;23;19967;-82
2022/05/26 09:28:14;;;;;;;;;;;20.80;99.80;;;18.02;98.98;101037.72;6150924;23;19938;-83
2022/05/26 09:30:41;;;;;;;;;;;20.80;99.80;;;18.04;99.45;101041.09;6152919;23;19927;-82
2022/05/26 09:33:19;;;;;;;;;;;20.80;99.90;;;18.04;98.99;101041.94;6153077;23;20002;-82
2022/05/26 09:35:47;;;;;;;;;;;20.80;99.90;;;18.08;99.74;101034.09;6152517;23;19952;-82
2022/05/26 09:38:18;;;;;;;;;;;20.80;99.90;;;18.10;99.14;101034.72;6151802;23;20364;-82
2022/05/26 09:40:48;;;;;;;;;;;20.80;99.90;;;18.12;98.30;101035.31;6152976;23;19922;-82
2022/05/26 09:43:27;;;;;;;;;;;20.80;99.70;;;18.14;97.55;101038.69;6152152;23;20406;-82
2022/05/26 09:45:56;;;;;;;;;;;20.80;99.60;;;18.18;98.90;101045.44;6152787;23;20003;-82
2022/05/26 09:48:26;;;;;;;;;;;20.90;99.90;;;18.16;96.51;101058.59;6151557;23;20003;-82
2022/05/26 09:51:04;;;;;;;;;;;20.90;99.30;;;18.19;96.53;101052.66;6153086;23;19916;-83
2022/05/26 09:53:34;;;;;;;;;;;20.90;99.30;;;18.17;94.15;101057.56;6152496;23;19921;-82
2022/05/26 09:56:03;;;;;;;;;;;20.80;98.40;;;18.17;95.32;101049.28;6126884;23;19924;-82
2022/05/26 09:58:34;;;;;;;;;;;20.80;98.80;;;18.21;95.99;101058.78;6151802;23;19920;-82
2022/05/26 10:01:03;;;;;;;;;;;20.80;99.20;;;18.23;96.42;101051.16;6152215;23;20340;-82
2022/05/26 10:03:42;;;;;;;;;;;20.90;99.40;;;18.26;97.80;101050.72;6152733;23;20007;-82
2022/05/26 10:06:17;;;;;;;;;;;21.00;99.80;;;18.30;97.54;101051.13;6152177;23;19995;-82
2022/05/26 10:08:52;;;;;;;;;;;21.10;99.70;;;18.34;96.08;101057.88;6151824;23;19927;-82
2022/05/26 10:11:35;;;;;;;;;;;21.20;98.60;;;18.38;96.98;101059.09;6152920;23;20263;-82
2022/05/26 10:14:11;;;;;;;;;;;21.20;99.20;;;18.43;95.06;101061.19;6152725;23;19948;-82
2022/05/26 10:16:44;;;;;;;;;;;21.20;98.90;;;18.46;95.38;101075.34;6151602;23;19921;-82
2022/05/26 10:19:23;;;;;;;;;;;21.30;98.30;;;18.50;95.11;101064.72;6151659;23;19931;-82
2022/05/26 10:22:01;;;;;;;;;;;21.30;98.20;;;18.55;94.91;101062.16;6152593;23;19952;-82
2022/05/26 10:24:56;;;;;;;;;;;21.30;98.20;;;18.58;93.92;101058.94;6152280;23;19927;-82
2022/05/26 10:27:33;;;;;;;;;;;21.40;97.80;;;18.60;92.42;101062.34;6150905;23;19959;-82
2022/05/26 10:30:14;;;;;;;;;;;21.40;97.20;;;18.62;92.44;101064.84;6125554;23;19940;-82
2022/05/26 10:32:47;;;;;;;;;;;21.40;97.30;;;18.67;92.87;101063.09;6152032;23;19916;-82
2022/05/26 10:35:20;;;;;;;;;;;21.50;97.70;;;18.71;94.89;101061.56;6151723;23;19955;-83
2022/05/26 10:37:59;;;;;;;;;;;21.50;97.90;;;18.73;91.45;101067.75;6151622;23;19921;-82
2022/05/26 10:40:32;;;;;;;;;;;21.60;96.70;;;18.69;86.78;101069.22;6152191;23;20673;-82
2022/05/26 10:43:07;;;;;;;;;;;21.50;95.00;;;18.72;88.06;101070.72;6151971;23;19931;-82
2022/05/26 10:45:38;;;;;;;;;;;21.40;95.60;;;18.75;86.91;101073.88;6151921;23;19921;-82
2022/05/26 10:48:09;;;;;;;;;;;21.40;95.20;;;18.73;84.13;101073.25;6151523;23;19925;-81
2022/05/26 10:50:41;;;;;;;;;;;21.40;94.70;;;18.75;84.95;101075.75;6151575;23;19920;-82
2022/05/26 10:53:16;;;;;;;;;;;21.40;95.10;;;18.75;85.13;101081.28;6152234;23;20014;-82
2022/05/26 10:55:48;;;;;;;;;;;21.30;94.80;;;18.74;85.50;101080.44;6126213;23;19943;-82
2022/05/26 10:58:20;;;;;;;;;;;21.30;94.80;;;18.76;86.36;101092.09;6151288;23;19928;-82
2022/05/26 11:00:50;;;;;;;;;;;21.30;94.80;;;18.76;85.44;101091.25;6125912;23;19916;-82
2022/05/26 11:03:23;;;;;;;;;;;21.30;94.90;;;18.79;86.96;101081.69;6152077;23;20263;-82
2022/05/26 11:05:54;;;;;;;;;;;21.30;95.40;;;18.80;87.04;101088.91;6151978;23;19995;-81
2022/05/26 11:08:33;;;;;;;;;;;21.40;95.40;;;18.81;85.62;101082.31;6150638;23;19999;-82
2022/05/26 11:11:03;;;;;;;;;;;21.30;94.10;;;18.79;82.10;101082.53;6151437;23;19948;-82
2022/05/26 11:13:42;;;;;;;;;;;21.30;93.40;;;18.81;84.21;101074.06;6150735;23;20007;-83
2022/05/26 11:19:13;;;;;;;;;;;21.30;94.60;;;18.86;87.02;101075.06;6149094;23;19971;-77
2022/05/26 11:21:40;;;;;;;;;;;21.40;95.10;;;18.90;87.01;101072.69;6152041;23;19950;-77
2022/05/26 11:24:09;;;;;;;;;;;21.50;95.10;;;18.91;86.95;101071.66;6151134;23;20379;-77
2022/05/26 11:26:41;;;;;;;;;;;21.50;94.90;;;18.94;85.77;101073.94;6151863;23;19970;-77
2022/05/26 11:29:15;;;;;;;;;;;21.50;94.50;;;18.94;84.39;101074.81;6150648;23;19917;-76
2022/05/26 11:37:31;;;;;;;;;;;21.50;92.20;;;18.98;82.80;101097.22;6151716;23;19917;-80
2022/05/26 11:40:00;;;;;;;;;;;21.50;93.20;;;18.96;83.34;101093.84;6150240;23;19926;-80
2022/05/26 11:42:32;;;;;;;;;;;21.40;93.40;;;18.95;83.90;101086.66;6150724;23;19971;-81
2022/05/26 11:45:19;;;;;;;;;;;21.40;93.40;;;18.90;80.85;101087.31;6151270;23;19916;-81
2022/05/26 11:47:55;;;;;;;;;;;21.30;92.80;;;18.87;80.30;101089.72;6150614;23;20011;-81
2022/05/26 11:50:32;;;;;;;;;;;21.20;92.60;;;18.87;80.00;101095.25;6152045;23;19963;-81
2022/05/26 11:53:13;;;;;;;;;;;21.20;92.70;;;18.88;80.79;101078.44;6154826;23;19920;-81
2022/05/26 11:55:50;;;;;;;;;;;21.20;92.70;;;18.87;76.73;101075.94;6155198;23;20496;-80
2022/05/26 11:58:36;;;;;;;;;;;21.30;92.50;;;18.87;78.06;101076.75;6154024;23;19924;-79
2022/05/26 12:01:37;;;;;;;;;;;21.30;91.20;;;18.89;78.69;101071.03;6154709;23;19967;-80
2022/05/26 12:04:24;;;;;;;;;;;21.30;91.90;;;18.88;78.22;101075.69;6155026;23;19916;-80